createdAt,value
2023-07-08T00:00:31.127Z,24.39
2023-07-08T00:02:57.730Z,24.38
2023-07-08T00:05:24.282Z,24.38
2023-07-08T00:07:50.900Z,24.39
2023-07-08T00:10:22.405Z,24.36
2023-07-08T00:12:50.478Z,24.37
2023-07-08T00:15:17.341Z,24.40
2023-07-08T00:17:44.435Z,24.40
2023-07-08T00:20:24.589Z,24.39
2023-07-08T00:22:51.193Z,24.34
2023-07-08T00:25:20.481Z,24.39
2023-07-08T00:27:48.462Z,24.40
2023-07-08T00:30:18.195Z,24.40
2023-07-08T00:32:45.767Z,24.39
2023-07-08T00:35:12.382Z,24.41
2023-07-08T00:37:38.918Z,24.36
2023-07-08T00:40:16.617Z,24.42
2023-07-08T00:42:44.606Z,24.40
2023-07-08T00:45:31.437Z,24.39
2023-07-08T00:47:59.714Z,24.41
2023-07-08T00:50:26.502Z,24.41
2023-07-08T00:53:28.422Z,24.41
2023-07-08T00:55:57.998Z,24.36
2023-07-08T00:58:24.913Z,24.37
2023-07-08T01:00:52.105Z,24.36
2023-07-08T01:03:19.243Z,24.42
2023-07-08T01:05:45.855Z,24.42
2023-07-08T01:08:12.406Z,24.42
2023-07-08T01:10:52.082Z,24.42
2023-07-08T01:13:18.637Z,24.40
2023-07-08T01:15:46.159Z,24.39
2023-07-08T01:18:13.511Z,24.44
2023-07-08T01:20:40.558Z,24.39
2023-07-08T01:23:07.119Z,24.42
2023-07-08T01:25:33.707Z,24.41
2023-07-08T01:28:00.333Z,24.42
2023-07-08T01:30:27.313Z,24.41
2023-07-08T01:32:57.584Z,24.42
2023-07-08T01:35:24.194Z,24.40
2023-07-08T01:37:53.974Z,24.42
2023-07-08T01:40:20.471Z,24.43
2023-07-08T01:42:47.222Z,24.43
2023-07-08T01:45:15.081Z,24.42
2023-07-08T01:47:42.516Z,24.43
2023-07-08T01:50:10.044Z,24.41
2023-07-08T01:52:36.946Z,24.42
2023-07-08T01:55:03.852Z,24.43
2023-07-08T01:57:30.420Z,24.42
2023-07-08T01:59:56.982Z,24.43
2023-07-08T02:02:25.344Z,24.43
2023-07-08T02:04:51.969Z,24.42
2023-07-08T02:07:18.547Z,24.43
2023-07-08T02:09:45.181Z,24.43
2023-07-08T02:12:11.838Z,24.43
2023-07-08T02:14:38.413Z,24.44
2023-07-08T02:17:06.733Z,24.42
2023-07-08T02:19:33.291Z,24.43
2023-07-08T02:21:59.872Z,24.43
2023-07-08T02:24:26.525Z,24.43
2023-07-08T02:26:53.229Z,24.43
2023-07-08T02:29:19.783Z,24.43
2023-07-08T02:31:46.380Z,24.43
2023-07-08T02:34:13.416Z,24.38
2023-07-08T02:36:40.071Z,24.43
2023-07-08T02:39:07.005Z,24.43
2023-07-08T02:41:33.666Z,24.43
2023-07-08T02:44:00.239Z,24.43
2023-07-08T02:46:26.923Z,24.44
2023-07-08T02:48:53.580Z,24.42
2023-07-08T02:51:22.925Z,24.42
2023-07-08T02:53:50.934Z,24.40
2023-07-08T02:56:17.524Z,24.41
2023-07-08T02:58:44.080Z,24.40
2023-07-08T03:01:10.639Z,24.39
2023-07-08T03:03:37.285Z,24.38
2023-07-08T03:06:06.570Z,24.39
2023-07-08T03:08:33.338Z,24.39
2023-07-08T03:11:02.676Z,24.39
2023-07-08T03:13:29.887Z,24.39
2023-07-08T03:15:56.708Z,24.38
2023-07-08T03:18:25.208Z,24.38
2023-07-08T03:20:51.808Z,24.38
2023-07-08T03:23:18.400Z,24.38
2023-07-08T03:25:45.199Z,24.38
2023-07-08T03:28:15.993Z,24.38
2023-07-08T03:30:43.032Z,24.38
2023-07-08T03:33:10.073Z,24.39
2023-07-08T03:35:36.791Z,24.38
2023-07-08T03:38:03.826Z,24.38
2023-07-08T03:40:30.537Z,24.38
2023-07-08T03:42:57.079Z,24.38
2023-07-08T03:45:23.914Z,24.38
2023-07-08T03:47:50.537Z,24.40
2023-07-08T03:50:20.406Z,24.40
2023-07-08T03:52:47.619Z,24.39
2023-07-08T03:55:14.427Z,24.39
2023-07-08T03:57:41.162Z,24.39
2023-07-08T04:00:10.391Z,24.39
2023-07-08T04:02:37.415Z,24.39
2023-07-08T04:05:04.467Z,24.39
2023-07-08T04:07:31.060Z,24.39
2023-07-08T04:09:57.635Z,24.40
2023-07-08T04:12:24.190Z,24.41
2023-07-08T04:14:50.744Z,24.40
2023-07-08T04:17:18.510Z,24.40
2023-07-08T04:19:45.291Z,24.40
2023-07-08T04:22:11.962Z,24.41
2023-07-08T04:24:38.505Z,24.40
2023-07-08T04:27:05.751Z,24.40
2023-07-08T04:29:32.357Z,24.41
2023-07-08T04:31:58.983Z,24.41
2023-07-08T04:34:25.646Z,24.41
2023-07-08T04:36:52.259Z,24.41
2023-07-08T04:39:19.200Z,24.41
2023-07-08T04:41:45.837Z,24.40
2023-07-08T04:44:12.827Z,24.41
2023-07-08T04:46:40.114Z,24.42
2023-07-08T04:49:07.900Z,24.42
2023-07-08T04:51:34.509Z,24.41
2023-07-08T04:54:01.072Z,24.39
2023-07-08T04:56:45.715Z,24.41
2023-07-08T04:59:14.345Z,24.42
2023-07-08T05:01:41.085Z,24.41
2023-07-08T05:04:08.053Z,24.42
2023-07-08T05:06:35.185Z,24.41
2023-07-08T05:09:02.128Z,24.42
2023-07-08T05:11:28.777Z,24.43
2023-07-08T05:13:55.645Z,24.42
2023-07-08T05:16:22.264Z,24.42
2023-07-08T05:18:48.980Z,24.41
2023-07-08T05:21:15.665Z,24.42
2023-07-08T05:23:42.274Z,24.42
2023-07-08T05:26:08.921Z,24.41
2023-07-08T05:28:35.606Z,24.42
2023-07-08T05:31:02.651Z,24.42
2023-07-08T05:33:30.507Z,24.42
2023-07-08T05:35:57.206Z,24.42
2023-07-08T05:38:24.439Z,24.42
2023-07-08T05:40:51.728Z,24.42
2023-07-08T05:43:18.818Z,24.42
2023-07-08T05:45:49.784Z,24.43
2023-07-08T05:48:24.456Z,24.42
2023-07-08T05:50:51.054Z,24.41
2023-07-08T05:53:19.403Z,24.37
2023-07-08T05:55:46.257Z,24.42
2023-07-08T05:58:25.899Z,24.42
2023-07-08T06:00:58.190Z,24.42
2023-07-08T06:03:25.232Z,24.42
2023-07-08T06:05:51.858Z,24.42
2023-07-08T06:08:18.500Z,24.43
2023-07-08T06:10:45.548Z,24.41
2023-07-08T06:13:12.844Z,24.41
2023-07-08T06:15:40.043Z,24.40
2023-07-08T06:18:06.731Z,24.34
2023-07-08T06:20:33.565Z,24.39
2023-07-08T06:23:00.165Z,24.38
2023-07-08T06:25:26.819Z,24.39
2023-07-08T06:27:54.899Z,24.38
2023-07-08T06:30:21.689Z,24.39
2023-07-08T06:32:48.315Z,24.38
2023-07-08T06:35:15.380Z,24.39
2023-07-08T06:37:41.974Z,24.39
2023-07-08T06:40:08.923Z,24.39
2023-07-08T06:42:35.458Z,24.37
2023-07-08T06:45:02.037Z,24.39
2023-07-08T06:47:28.692Z,24.38
2023-07-08T06:49:58.125Z,24.39
2023-07-08T06:52:25.972Z,24.39
2023-07-08T06:54:52.588Z,24.39
2023-07-08T06:57:19.242Z,24.39
2023-07-08T06:59:45.812Z,24.38
2023-07-08T07:02:12.451Z,24.39
2023-07-08T07:04:39.090Z,24.39
2023-07-08T07:07:06.041Z,24.39
2023-07-08T07:09:34.180Z,24.40
2023-07-08T07:12:00.806Z,24.39
2023-07-08T07:19:26.339Z,24.39
2023-07-08T07:21:52.955Z,24.39
2023-07-08T07:24:19.634Z,24.39
2023-07-08T07:26:46.220Z,24.39
2023-07-08T07:29:12.795Z,24.39
2023-07-08T07:31:41.004Z,24.39
2023-07-08T07:34:07.783Z,24.40
2023-07-08T07:36:34.348Z,24.40
2023-07-08T07:39:01.215Z,24.40
2023-07-08T07:41:27.763Z,24.36
2023-07-08T07:43:54.300Z,24.40
2023-07-08T07:46:20.935Z,24.40
2023-07-08T07:48:47.577Z,24.40
2023-07-08T07:51:14.789Z,24.40
2023-07-08T07:53:41.456Z,24.39
2023-07-08T07:56:08.295Z,24.39
2023-07-08T07:58:35.110Z,24.40
2023-07-08T08:01:01.862Z,24.40
2023-07-08T08:03:28.942Z,24.40
2023-07-08T08:05:55.589Z,24.39
2023-07-08T08:08:23.646Z,24.40
2023-07-08T08:10:50.498Z,24.40
2023-07-08T08:13:17.122Z,24.40
2023-07-08T08:15:43.707Z,24.40
2023-07-08T08:18:10.264Z,24.41
2023-07-08T08:20:36.857Z,24.40
2023-07-08T08:23:03.557Z,24.40
2023-07-08T08:25:30.204Z,24.40
2023-07-08T08:27:57.459Z,24.40
2023-07-08T08:30:24.047Z,24.40
2023-07-08T08:32:50.699Z,24.41
2023-07-08T08:35:17.515Z,24.34
2023-07-08T08:37:44.126Z,24.40
2023-07-08T08:40:14.393Z,24.41
2023-07-08T08:42:47.799Z,24.39
2023-07-08T08:45:18.996Z,24.42
2023-07-08T08:47:46.935Z,24.40
2023-07-08T08:50:13.389Z,24.42
2023-07-08T08:52:39.941Z,24.41
2023-07-08T08:55:13.200Z,24.41
2023-07-08T08:57:46.752Z,24.41
2023-07-08T09:00:15.856Z,24.40
2023-07-08T09:02:52.190Z,24.41
2023-07-08T09:05:18.811Z,24.41
2023-07-08T09:08:18.402Z,24.38
2023-07-08T09:10:49.004Z,24.41
2023-07-08T09:13:36.629Z,24.41
2023-07-08T09:16:07.292Z,24.41
2023-07-08T09:19:07.420Z,24.40
2023-07-08T09:21:50.431Z,24.41
2023-07-08T09:24:43.107Z,24.40
2023-07-08T09:27:09.705Z,24.40
2023-07-08T09:29:36.377Z,24.41
2023-07-08T09:32:18.771Z,24.36
2023-07-08T09:34:56.623Z,24.37
2023-07-08T09:37:31.245Z,24.38
2023-07-08T09:39:59.263Z,24.37
2023-07-08T09:42:33.896Z,24.37
2023-07-08T09:45:03.684Z,24.37
2023-07-08T09:47:34.184Z,24.36
2023-07-08T09:50:01.351Z,24.36
2023-07-08T09:52:30.259Z,24.37
2023-07-08T09:54:56.830Z,24.35
2023-07-08T09:57:31.231Z,24.37
2023-07-08T10:00:04.714Z,24.37
2023-07-08T10:02:42.321Z,24.36
2023-07-08T10:05:39.463Z,24.36
2023-07-08T10:08:21.849Z,24.36
2023-07-08T10:11:24.563Z,24.34
2023-07-08T10:14:07.532Z,24.37
2023-07-08T10:16:39.090Z,24.36
2023-07-08T10:19:14.314Z,24.37
2023-07-08T10:21:59.275Z,24.37
2023-07-08T10:24:49.048Z,24.36
2023-07-08T10:27:43.792Z,24.37
2023-07-08T10:30:23.344Z,24.37
2023-07-08T10:32:55.386Z,24.37
2023-07-08T10:35:22.357Z,24.37
2023-07-08T10:37:58.996Z,24.38
2023-07-08T10:40:31.590Z,24.38
2023-07-08T10:43:24.254Z,24.37
2023-07-08T10:45:56.999Z,24.38
2023-07-08T10:48:57.584Z,24.38
2023-07-08T10:51:47.580Z,24.38
2023-07-08T10:54:41.851Z,24.38
2023-07-08T10:57:33.036Z,24.38
2023-07-08T11:00:17.342Z,24.39
2023-07-08T11:02:54.357Z,24.38
2023-07-08T11:05:27.058Z,24.38
2023-07-08T11:08:09.040Z,24.35
2023-07-08T11:10:39.844Z,24.37
2023-07-08T11:13:10.350Z,24.38
2023-07-08T11:15:42.926Z,24.38
2023-07-08T11:18:14.937Z,24.38
2023-07-08T11:20:53.288Z,24.38
2023-07-08T11:23:43.891Z,24.38
2023-07-08T11:26:36.004Z,24.39
2023-07-08T11:29:02.556Z,24.39
2023-07-08T11:31:32.734Z,24.39
2023-07-08T11:33:59.522Z,24.39
2023-07-08T11:36:26.136Z,24.39
2023-07-08T11:38:55.817Z,24.40
2023-07-08T11:41:23.836Z,24.38
2023-07-08T11:43:57.021Z,24.38
2023-07-08T11:46:29.886Z,24.40
2023-07-08T11:48:58.222Z,24.40
2023-07-08T11:51:30.206Z,24.38
2023-07-08T11:54:00.957Z,24.39
2023-07-08T11:56:27.601Z,24.41
2023-07-08T11:59:12.599Z,24.41
2023-07-08T12:01:41.760Z,24.39
2023-07-08T12:04:09.589Z,24.40
2023-07-08T12:06:36.401Z,24.41
2023-07-08T12:09:26.901Z,24.42
2023-07-08T12:12:00.003Z,24.41
2023-07-08T12:14:26.998Z,24.41
2023-07-08T12:16:53.628Z,24.39
2023-07-08T12:19:21.277Z,24.40
2023-07-08T12:21:47.847Z,24.41
2023-07-08T12:24:14.807Z,24.42
2023-07-08T12:26:42.280Z,24.41
2023-07-08T12:29:12.704Z,24.41
2023-07-08T12:31:39.323Z,24.42
2023-07-08T12:34:07.005Z,24.41
2023-07-08T12:36:34.154Z,24.41
2023-07-08T12:39:01.472Z,24.40
2023-07-08T12:41:33.739Z,24.41
2023-07-08T12:44:01.076Z,24.41
2023-07-08T12:46:27.835Z,24.41
2023-07-08T12:48:54.427Z,24.39
2023-07-08T12:51:23.752Z,24.43
2023-07-08T12:53:50.918Z,24.42
2023-07-08T12:56:17.987Z,24.43
2023-07-08T12:58:46.797Z,24.45
2023-07-08T13:01:33.726Z,24.46
2023-07-08T13:04:02.235Z,24.45
2023-07-08T13:06:30.685Z,24.45
2023-07-08T13:09:03.557Z,24.48
2023-07-08T13:11:30.154Z,24.47
2023-07-08T13:14:02.566Z,24.46
2023-07-08T13:16:35.690Z,24.46
2023-07-08T13:19:02.778Z,24.42
2023-07-08T13:21:31.609Z,24.43
2023-07-08T13:23:58.444Z,24.42
2023-07-08T13:26:28.036Z,24.41
2023-07-08T13:29:02.591Z,24.39
2023-07-08T13:31:39.064Z,24.37
2023-07-08T13:34:10.451Z,24.36
2023-07-08T13:36:38.393Z,24.36
2023-07-08T13:39:09.730Z,24.35
2023-07-08T13:41:36.493Z,24.32
2023-07-08T13:44:07.206Z,24.35
2023-07-08T13:46:39.948Z,24.33
2023-07-08T13:49:24.919Z,24.36
2023-07-08T13:51:52.202Z,24.34
2023-07-08T13:54:26.751Z,24.36
2023-07-08T13:56:53.482Z,24.37
2023-07-08T13:59:24.072Z,24.36
2023-07-08T14:01:53.137Z,24.37
2023-07-08T14:04:23.097Z,24.37
2023-07-08T14:06:49.646Z,24.39
2023-07-08T14:09:20.494Z,24.39
2023-07-08T14:11:47.470Z,24.40
2023-07-08T14:14:14.236Z,24.40
2023-07-08T14:16:44.119Z,24.42
2023-07-08T14:19:18.747Z,24.39
2023-07-08T14:21:45.364Z,24.43
2023-07-08T14:24:13.418Z,24.44
2023-07-08T14:26:43.311Z,24.44
2023-07-08T14:29:10.036Z,24.46
2023-07-08T14:31:37.060Z,24.44
2023-07-08T14:34:06.965Z,24.47
2023-07-08T14:36:33.679Z,24.48
2023-07-08T14:39:01.616Z,24.46
2023-07-08T14:41:28.538Z,24.49
2023-07-08T14:43:55.929Z,24.50
2023-07-08T14:46:22.561Z,24.50
2023-07-08T14:48:49.192Z,24.51
2023-07-08T14:51:15.738Z,24.51
2023-07-08T14:53:42.338Z,24.51
2023-07-08T14:56:17.985Z,24.50
2023-07-08T14:58:45.574Z,24.52
2023-07-08T15:01:22.134Z,24.52
2023-07-08T15:03:48.961Z,24.53
2023-07-08T15:06:15.560Z,24.53
2023-07-08T15:08:42.215Z,24.51
2023-07-08T15:11:12.541Z,24.53
2023-07-08T15:13:39.243Z,24.50
2023-07-08T15:16:06.144Z,24.54
2023-07-08T15:18:34.823Z,24.54
2023-07-08T15:21:02.219Z,24.55
2023-07-08T15:23:30.306Z,24.56
2023-07-08T15:25:56.989Z,24.54
2023-07-08T15:28:51.992Z,24.53
2023-07-08T15:31:21.287Z,24.55
2023-07-08T15:33:47.887Z,24.54
2023-07-08T15:36:14.586Z,24.50
2023-07-08T15:38:41.807Z,24.55
2023-07-08T15:41:27.747Z,24.55
2023-07-08T15:43:54.871Z,24.54
2023-07-08T15:46:21.840Z,24.55
2023-07-08T15:48:49.552Z,24.57
2023-07-08T15:51:16.357Z,24.54
2023-07-08T15:53:42.902Z,24.55
2023-07-08T15:56:13.513Z,24.58
2023-07-08T15:58:40.042Z,24.57
2023-07-08T16:01:06.864Z,24.58
2023-07-08T16:03:34.762Z,24.58
2023-07-08T16:06:01.381Z,24.59
2023-07-08T16:08:28.115Z,24.57
2023-07-08T16:11:03.110Z,24.56
2023-07-08T16:13:31.808Z,24.59
2023-07-08T16:15:58.549Z,24.59
2023-07-08T16:18:26.192Z,24.59
2023-07-08T16:20:52.798Z,24.58
2023-07-08T16:23:19.384Z,24.58
2023-07-08T16:25:47.720Z,24.59
2023-07-08T16:28:27.460Z,24.56
2023-07-08T16:30:54.037Z,24.60
2023-07-08T16:33:20.628Z,24.60
2023-07-08T16:35:47.417Z,24.58
2023-07-08T16:38:15.703Z,24.60
2023-07-08T16:40:42.253Z,24.59
2023-07-08T16:43:22.838Z,24.59
2023-07-08T16:45:50.218Z,24.59
2023-07-08T16:48:18.413Z,24.59
2023-07-08T16:50:45.042Z,24.57
2023-07-08T16:53:12.314Z,24.58
2023-07-08T16:55:38.915Z,24.60
2023-07-08T16:58:05.490Z,24.59
2023-07-08T17:00:32.089Z,24.60
2023-07-08T17:03:01.425Z,24.61
2023-07-08T17:05:46.026Z,24.60
2023-07-08T17:08:16.288Z,24.63
2023-07-08T17:10:43.151Z,24.62
2023-07-08T17:13:09.735Z,24.62
2023-07-08T17:15:36.293Z,24.60
2023-07-08T17:18:03.290Z,24.61
2023-07-08T17:20:34.998Z,24.61
2023-07-08T17:23:22.045Z,24.64
2023-07-08T17:25:48.766Z,24.62
2023-07-08T17:28:15.334Z,24.61
2023-07-08T17:30:44.562Z,24.65
2023-07-08T17:33:21.015Z,24.65
2023-07-08T17:35:49.690Z,24.63
2023-07-08T17:38:21.771Z,24.65
2023-07-08T17:40:48.304Z,24.64
2023-07-08T17:43:14.904Z,24.66
2023-07-08T17:45:43.329Z,24.65
2023-07-08T17:48:24.325Z,24.64
2023-07-08T17:50:51.911Z,24.62
2023-07-08T17:53:18.513Z,24.59
2023-07-08T17:55:45.605Z,24.56
2023-07-08T17:58:13.553Z,24.54
2023-07-08T18:00:40.323Z,24.54
2023-07-08T18:03:06.994Z,24.56
2023-07-08T18:05:33.714Z,24.55
2023-07-08T18:08:00.684Z,24.54
2023-07-08T18:10:28.146Z,24.55
2023-07-08T18:12:54.685Z,24.54
2023-07-08T18:15:27.765Z,24.54
2023-07-08T18:17:56.138Z,24.49
2023-07-08T18:20:27.921Z,24.52
2023-07-08T18:22:54.502Z,24.54
2023-07-08T18:25:25.739Z,24.52
2023-07-08T18:27:52.614Z,24.53
2023-07-08T18:30:20.701Z,24.53
2023-07-08T18:32:48.428Z,24.52
2023-07-08T18:35:21.219Z,24.52
2023-07-08T18:37:48.006Z,24.51
2023-07-08T18:40:20.476Z,24.52
2023-07-08T18:42:54.422Z,24.52
2023-07-08T18:45:21.310Z,24.52
2023-07-08T18:47:48.087Z,24.52
2023-07-08T18:50:15.041Z,24.51
2023-07-08T18:52:41.615Z,24.51
2023-07-08T18:55:16.427Z,24.50
2023-07-08T18:57:43.035Z,24.51
2023-07-08T19:00:12.066Z,24.50
2023-07-08T19:03:02.955Z,24.48
2023-07-08T19:05:29.574Z,24.50
2023-07-08T19:07:56.121Z,24.50
2023-07-08T19:10:26.677Z,24.49
2023-07-08T19:12:53.230Z,24.50
2023-07-08T19:15:23.326Z,24.50
2023-07-08T19:17:50.153Z,24.50
2023-07-08T19:20:17.070Z,24.49
2023-07-08T19:22:44.298Z,24.50
2023-07-08T19:25:24.880Z,24.50
2023-07-08T19:27:51.677Z,24.50
2023-07-08T19:30:18.644Z,24.48
2023-07-08T19:32:55.765Z,24.45
2023-07-08T19:35:23.572Z,24.50
2023-07-08T19:37:50.358Z,24.50
2023-07-08T19:40:22.095Z,24.50
2023-07-08T19:42:50.110Z,24.49
2023-07-08T19:45:25.604Z,24.49
2023-07-08T19:47:52.860Z,24.48
2023-07-08T19:50:20.833Z,24.49
2023-07-08T19:52:47.967Z,24.49
2023-07-08T19:55:14.802Z,24.48
2023-07-08T19:57:52.463Z,24.48
2023-07-08T20:00:22.465Z,24.49
2023-07-08T20:02:52.893Z,24.47
2023-07-08T20:05:20.229Z,24.48
2023-07-08T20:07:46.971Z,24.48
2023-07-08T20:10:15.089Z,24.47
2023-07-08T20:12:41.880Z,24.49
2023-07-08T20:15:09.426Z,24.49
2023-07-08T20:17:36.148Z,24.48
2023-07-08T20:20:02.874Z,24.48
2023-07-08T20:22:31.344Z,24.49
2023-07-08T20:24:58.864Z,24.48
2023-07-08T20:27:26.900Z,24.48
2023-07-08T20:29:53.772Z,24.48
2023-07-08T20:32:20.395Z,24.47
2023-07-08T20:34:47.010Z,24.46
2023-07-08T20:37:15.130Z,24.48
2023-07-08T20:39:41.730Z,24.44
2023-07-08T20:42:13.125Z,24.48
2023-07-08T20:44:42.060Z,24.48
2023-07-08T20:47:13.497Z,24.48
2023-07-08T20:49:40.098Z,24.48
2023-07-08T20:52:08.598Z,24.48
2023-07-08T20:54:35.182Z,24.46
2023-07-08T20:57:01.772Z,24.48
2023-07-08T20:59:28.458Z,24.48
2023-07-08T21:01:55.338Z,24.47
2023-07-08T21:04:21.995Z,24.49
2023-07-08T21:06:48.529Z,24.49
2023-07-08T21:09:15.803Z,24.50
2023-07-08T21:11:42.394Z,24.51
2023-07-08T21:14:09.069Z,24.51
2023-07-08T21:16:37.521Z,24.50
2023-07-08T21:19:04.188Z,24.47
2023-07-08T21:21:30.769Z,24.50
2023-07-08T21:23:57.395Z,24.46
2023-07-08T21:26:28.606Z,24.46
2023-07-08T21:28:57.677Z,24.44
2023-07-08T21:31:24.278Z,24.45
2023-07-08T21:33:51.087Z,24.45
2023-07-08T21:36:21.721Z,24.44
2023-07-08T21:38:48.298Z,24.41
2023-07-08T21:41:14.893Z,24.44
2023-07-08T21:43:41.419Z,24.44
2023-07-08T21:46:08.963Z,24.44
2023-07-08T21:48:35.697Z,24.44
2023-07-08T21:51:02.673Z,24.42
2023-07-08T21:53:32.062Z,24.43
2023-07-08T21:55:58.678Z,24.44
2023-07-08T21:58:25.413Z,24.45
2023-07-08T22:00:52.079Z,24.43
2023-07-08T22:03:24.902Z,24.43
2023-07-08T22:05:51.697Z,24.44
2023-07-08T22:08:22.942Z,24.44
2023-07-08T22:10:54.023Z,24.41
2023-07-08T22:13:29.507Z,24.44
2023-07-08T22:15:57.257Z,24.45
2023-07-08T22:18:24.128Z,24.46
2023-07-08T22:20:58.015Z,24.44
2023-07-08T22:23:26.042Z,24.44
2023-07-08T22:25:52.670Z,24.43
2023-07-08T22:28:19.339Z,24.44
2023-07-08T22:30:46.148Z,24.43
2023-07-08T22:33:15.144Z,24.44
2023-07-08T22:35:41.839Z,24.42
2023-07-08T22:38:09.732Z,24.44
2023-07-08T22:40:46.859Z,24.46
2023-07-08T22:43:19.115Z,24.45
2023-07-08T22:45:45.729Z,24.44
2023-07-08T22:48:12.337Z,24.46
2023-07-08T22:50:42.360Z,24.44
2023-07-08T22:53:21.394Z,24.45
2023-07-08T22:55:48.011Z,24.44
2023-07-08T22:58:19.807Z,24.42
2023-07-08T23:00:46.446Z,24.44
2023-07-08T23:03:13.149Z,24.45
2023-07-08T23:05:39.773Z,24.44
2023-07-08T23:08:09.032Z,24.45
2023-07-08T23:10:35.625Z,24.45
2023-07-08T23:13:02.166Z,24.44
2023-07-08T23:15:28.770Z,24.45
2023-07-08T23:17:55.616Z,24.44
2023-07-08T23:20:23.878Z,24.46
2023-07-08T23:22:50.435Z,24.45
2023-07-08T23:25:17.033Z,24.44
2023-07-08T23:27:43.854Z,24.44
2023-07-08T23:30:19.433Z,24.44
2023-07-08T23:32:46.209Z,24.44
2023-07-08T23:35:12.966Z,24.45
2023-07-08T23:37:39.744Z,24.45
2023-07-08T23:40:13.969Z,24.45
2023-07-08T23:42:41.296Z,24.45
2023-07-08T23:45:09.385Z,24.45
2023-07-08T23:47:35.974Z,24.44
2023-07-08T23:50:02.558Z,24.40
2023-07-08T23:52:29.123Z,24.45
2023-07-08T23:54:55.654Z,24.46
2023-07-08T23:57:22.758Z,24.45
2023-07-08T23:59:55.309Z,24.44
